sensor_id;sensor_type;location;lat;lon;timestamp;pressure;altitude;pressure_sealevel;temperature;humidity
57562;BME280;43397;51.530;5.974;2023-07-20T00:01:35;73561.06;;;-145.90;29.06
57562;BME280;43397;51.530;5.974;2023-07-20T00:04:01;73739.34;;;-145.90;30.29
57562;BME280;43397;51.530;5.974;2023-07-20T00:06:28;73569.19;;;-145.90;29.24
57562;BME280;43397;51.530;5.974;2023-07-20T00:08:54;73555.00;;;-145.90;29.13
57562;BME280;43397;51.530;5.974;2023-07-20T00:11:20;73561.06;;;-145.90;29.33
57562;BME280;43397;51.530;5.974;2023-07-20T00:13:45;73524.59;;;-145.90;29.02
57562;BME280;43397;51.530;5.974;2023-07-20T00:16:11;73542.84;;;-145.90;29.29
57562;BME280;43397;51.530;5.974;2023-07-20T00:18:37;73461.81;;;-145.90;28.75
57562;BME280;43397;51.530;5.974;2023-07-20T00:21:03;73425.34;;;-145.90;28.47
57562;BME280;43397;51.530;5.974;2023-07-20T00:23:30;73465.88;;;-145.90;28.51
57562;BME280;43397;51.530;5.974;2023-07-20T00:25:55;73761.63;;;-145.90;31.23
57562;BME280;43397;51.530;5.974;2023-07-20T00:28:21;73540.81;;;-145.90;29.75
57562;BME280;43397;51.530;5.974;2023-07-20T00:30:47;73494.22;;;-145.90;29.44
57562;BME280;43397;51.530;5.974;2023-07-20T00:33:13;73516.50;;;-145.90;29.66
57562;BME280;43397;51.530;5.974;2023-07-20T00:35:38;73443.59;;;-145.90;29.16
57562;BME280;43397;51.530;5.974;2023-07-20T00:38:05;73421.31;;;-145.90;28.91
57562;BME280;43397;51.530;5.974;2023-07-20T00:40:36;73488.16;;;-145.90;29.28
57562;BME280;43397;51.530;5.974;2023-07-20T00:43:02;73429.41;;;-145.90;29.17
57562;BME280;43397;51.530;5.974;2023-07-20T00:45:29;73366.63;;;-145.90;28.51
57562;BME280;43397;51.530;5.974;2023-07-20T00:47:54;73413.19;;;-145.90;28.82
57562;BME280;43397;51.530;5.974;2023-07-20T00:50:20;73465.88;;;-145.90;29.20
57562;BME280;43397;51.530;5.974;2023-07-20T00:52:46;73676.53;;;-145.90;30.69
57562;BME280;43397;51.530;5.974;2023-07-20T00:55:12;73500.31;;;-145.90;29.46
57562;BME280;43397;51.530;5.974;2023-07-20T00:57:39;73455.75;;;-145.90;29.03
57562;BME280;43397;51.530;5.974;2023-07-20T01:00:06;73423.34;;;-145.90;28.80
57562;BME280;43397;51.530;5.974;2023-07-20T01:02:32;73431.44;;;-145.90;28.86
57562;BME280;43397;51.530;5.974;2023-07-20T01:04:58;73567.16;;;-145.90;29.77
57562;BME280;43397;51.530;5.974;2023-07-20T01:07:26;73461.81;;;-145.90;28.97
57562;BME280;43397;51.530;5.974;2023-07-20T01:10:01;73455.75;;;-145.90;28.80
57562;BME280;43397;51.530;5.974;2023-07-20T01:12:32;73415.22;;;-145.90;28.57
57562;BME280;43397;51.530;5.974;2023-07-20T01:15:03;73508.41;;;-145.90;29.18
57562;BME280;43397;51.530;5.974;2023-07-20T01:17:29;73609.69;;;-145.90;30.01
57562;BME280;43397;51.530;5.974;2023-07-20T01:19:54;73536.75;;;-145.90;29.79
57562;BME280;43397;51.530;5.974;2023-07-20T01:22:42;73575.25;;;-145.90;29.88
57562;BME280;43397;51.530;5.974;2023-07-20T01:25:22;73486.13;;;-145.90;29.22
57562;BME280;43397;51.530;5.974;2023-07-20T01:31:13;73552.97;;;-145.90;29.69
57562;BME280;43397;51.530;5.974;2023-07-20T01:33:40;73524.59;;;-145.90;29.45
57562;BME280;43397;51.530;5.974;2023-07-20T01:36:07;73498.28;;;-145.90;29.28
57562;BME280;43397;51.530;5.974;2023-07-20T01:38:34;73542.84;;;-145.90;29.73
57562;BME280;43397;51.530;5.974;2023-07-20T01:41:00;73516.50;;;-145.90;29.46
57562;BME280;43397;51.530;5.974;2023-07-20T01:43:25;73498.28;;;-145.90;29.34
57562;BME280;43397;51.530;5.974;2023-07-20T01:45:51;73536.75;;;-145.90;29.46
57562;BME280;43397;51.530;5.974;2023-07-20T01:48:18;73532.72;;;-145.90;29.60
57562;BME280;43397;51.530;5.974;2023-07-20T01:50:44;73469.91;;;-145.90;28.91
57562;BME280;43397;51.530;5.974;2023-07-20T01:53:09;73518.53;;;-145.90;29.33
57562;BME280;43397;51.530;5.974;2023-07-20T01:55:35;73439.53;;;-145.90;28.86
57562;BME280;43397;51.530;5.974;2023-07-20T01:58:01;73492.19;;;-145.90;29.27
57562;BME280;43397;51.530;5.974;2023-07-20T02:00:26;73500.31;;;-145.90;29.36
57562;BME280;43397;51.530;5.974;2023-07-20T02:02:52;73467.91;;;-145.90;29.30
57562;BME280;43397;51.530;5.974;2023-07-20T02:05:19;73467.91;;;-145.90;29.21
57562;BME280;43397;51.530;5.974;2023-07-20T02:07:45;73459.78;;;-145.90;29.20
57562;BME280;43397;51.530;5.974;2023-07-20T02:10:10;73421.31;;;-145.90;28.87
57562;BME280;43397;51.530;5.974;2023-07-20T02:12:36;73447.63;;;-145.90;29.09
57562;BME280;43397;51.530;5.974;2023-07-20T02:15:02;73427.38;;;-145.90;29.19
57562;BME280;43397;51.530;5.974;2023-07-20T02:17:28;73494.22;;;-145.90;29.51
57562;BME280;43397;51.530;5.974;2023-07-20T02:19:54;73425.34;;;-145.90;29.02
57562;BME280;43397;51.530;5.974;2023-07-20T02:22:21;73405.09;;;-145.90;28.79
57562;BME280;43397;51.530;5.974;2023-07-20T02:24:47;73368.63;;;-145.90;28.62
57562;BME280;43397;51.530;5.974;2023-07-20T02:27:13;73364.59;;;-145.90;28.67
57562;BME280;43397;51.530;5.974;2023-07-20T02:29:40;73411.19;;;-145.90;29.06
57562;BME280;43397;51.530;5.974;2023-07-20T02:32:07;73465.88;;;-145.90;29.30
57562;BME280;43397;51.530;5.974;2023-07-20T02:34:33;73425.34;;;-145.90;29.21
57562;BME280;43397;51.530;5.974;2023-07-20T02:36:58;73498.28;;;-145.90;29.62
57562;BME280;43397;51.530;5.974;2023-07-20T02:39:26;73611.72;;;-145.90;30.42
57562;BME280;43397;51.530;5.974;2023-07-20T02:41:52;73662.34;;;-145.90;30.71
57562;BME280;43397;51.530;5.974;2023-07-20T02:44:18;73563.09;;;-145.90;30.32
57562;BME280;43397;51.530;5.974;2023-07-20T02:46:43;73536.75;;;-145.90;30.14
57562;BME280;43397;51.530;5.974;2023-07-20T02:49:09;73534.75;;;-145.90;30.29
57562;BME280;43397;51.530;5.974;2023-07-20T02:51:34;73702.88;;;-145.90;31.32
57562;BME280;43397;51.530;5.974;2023-07-20T02:54:00;73646.16;;;-145.90;31.00
57562;BME280;43397;51.530;5.974;2023-07-20T02:56:27;73567.16;;;-145.90;30.44
57562;BME280;43397;51.530;5.974;2023-07-20T02:58:53;73522.59;;;-145.90;30.18
57562;BME280;43397;51.530;5.974;2023-07-20T03:01:18;73627.91;;;-145.90;30.80
57562;BME280;43397;51.530;5.974;2023-07-20T03:03:44;73555.00;;;-145.90;30.02
57562;BME280;43397;51.530;5.974;2023-07-20T03:06:10;73583.34;;;-145.90;30.58
57562;BME280;43397;51.530;5.974;2023-07-20T03:08:35;73607.66;;;-145.90;30.69
57562;BME280;43397;51.530;5.974;2023-07-20T03:11:01;73733.25;;;-145.90;31.37
57562;BME280;43397;51.530;5.974;2023-07-20T03:13:28;73605.63;;;-145.90;30.57
57562;BME280;43397;51.530;5.974;2023-07-20T03:15:54;73563.09;;;-145.90;30.26
57562;BME280;43397;51.530;5.974;2023-07-20T03:18:19;73514.47;;;-145.90;29.78
57562;BME280;43397;51.530;5.974;2023-07-20T03:20:45;73654.25;;;-145.90;30.61
57562;BME280;43397;51.530;5.974;2023-07-20T03:23:11;73508.41;;;-145.90;29.91
57562;BME280;43397;51.530;5.974;2023-07-20T03:25:36;73692.75;;;-145.90;30.76
57562;BME280;43397;51.530;5.974;2023-07-20T03:28:02;73599.56;;;-145.90;30.17
57562;BME280;43397;51.530;5.974;2023-07-20T03:30:29;73520.56;;;-145.90;29.68
57562;BME280;43397;51.530;5.974;2023-07-20T03:32:54;73480.06;;;-145.90;29.36
57562;BME280;43397;51.530;5.974;2023-07-20T03:35:20;73502.31;;;-145.90;29.37
57562;BME280;43397;51.530;5.974;2023-07-20T03:37:46;73581.31;;;-145.90;29.87
57562;BME280;43397;51.530;5.974;2023-07-20T03:40:12;73636.03;;;-145.90;30.70
57562;BME280;43397;51.530;5.974;2023-07-20T03:42:37;73563.09;;;-145.90;29.97
57562;BME280;43397;51.530;5.974;2023-07-20T03:45:04;73627.91;;;-145.90;30.44
57562;BME280;43397;51.530;5.974;2023-07-20T03:47:31;73575.25;;;-145.90;29.80
57562;BME280;43397;51.530;5.974;2023-07-20T03:49:57;73520.56;;;-145.90;29.68
57562;BME280;43397;51.530;5.974;2023-07-20T03:52:23;73575.25;;;-145.90;30.21
57562;BME280;43397;51.530;5.974;2023-07-20T03:54:48;73640.06;;;-145.90;30.10
57562;BME280;43397;51.530;5.974;2023-07-20T03:57:14;73589.44;;;-145.90;30.43
57562;BME280;43397;51.530;5.974;2023-07-20T03:59:44;73524.59;;;-145.90;29.52
57562;BME280;43397;51.530;5.974;2023-07-20T04:02:10;73688.69;;;-145.90;30.73
57562;BME280;43397;51.530;5.974;2023-07-20T04:04:37;73824.41;;;-145.90;32.11
57562;BME280;43397;51.530;5.974;2023-07-20T04:07:03;73755.53;;;-145.90;31.49
57562;BME280;43397;51.530;5.974;2023-07-20T04:09:31;73569.19;;;-145.90;29.88
57562;BME280;43397;51.530;5.974;2023-07-20T04:11:57;73789.97;;;-145.90;31.28
57562;BME280;43397;51.530;5.974;2023-07-20T04:14:23;73755.53;;;-145.90;31.14
57562;BME280;43397;51.530;5.974;2023-07-20T04:16:49;73834.53;;;-145.90;31.62
57562;BME280;43397;51.530;5.974;2023-07-20T04:19:15;73698.81;;;-145.90;30.23
57562;BME280;43397;51.530;5.974;2023-07-20T04:21:42;73611.72;;;-145.90;29.71
57562;BME280;43397;51.530;5.974;2023-07-20T04:24:08;73577.28;;;-145.90;29.61
57562;BME280;43397;51.530;5.974;2023-07-20T04:26:33;73520.56;;;-145.90;28.95
57562;BME280;43397;51.530;5.974;2023-07-20T04:28:59;73577.28;;;-145.90;29.19
57562;BME280;43397;51.530;5.974;2023-07-20T04:31:25;73623.88;;;-145.90;29.74
57562;BME280;43397;51.530;5.974;2023-07-20T04:33:50;73540.81;;;-145.90;29.21
57562;BME280;43397;51.530;5.974;2023-07-20T04:36:16;73654.25;;;-145.90;29.91
57562;BME280;43397;51.530;5.974;2023-07-20T04:38:43;73721.09;;;-145.90;30.34
57562;BME280;43397;51.530;5.974;2023-07-20T04:41:09;73565.13;;;-145.90;29.41
57562;BME280;43397;51.530;5.974;2023-07-20T04:43:34;73480.06;;;-145.90;28.75
57562;BME280;43397;51.530;5.974;2023-07-20T04:46:00;73457.75;;;-145.90;28.46
57562;BME280;43397;51.530;5.974;2023-07-20T04:48:26;73741.34;;;-145.90;30.32
57562;BME280;43397;51.530;5.974;2023-07-20T04:50:51;73567.16;;;-145.90;29.30
57562;BME280;43397;51.530;5.974;2023-07-20T04:53:17;73595.50;;;-145.90;29.68
57562;BME280;43397;51.530;5.974;2023-07-20T04:55:49;73494.22;;;-145.90;28.86
57562;BME280;43397;51.530;5.974;2023-07-20T04:58:15;73376.75;;;-145.90;28.25
57562;BME280;43397;51.530;5.974;2023-07-20T05:00:40;73281.53;;;-145.90;27.39
57562;BME280;43397;51.530;5.974;2023-07-20T05:03:06;73453.72;;;-145.90;28.17
57562;BME280;43397;51.530;5.974;2023-07-20T05:05:32;73230.91;;;-145.90;26.95
57562;BME280;43397;51.530;5.974;2023-07-20T05:07:57;73241.03;;;-145.90;26.92
57562;BME280;43397;51.530;5.974;2023-07-20T05:10:32;73160.00;;;-145.90;26.53
57562;BME280;43397;51.530;5.974;2023-07-20T05:13:02;73210.66;;;-145.90;26.68
57562;BME280;43397;51.530;5.974;2023-07-20T05:15:28;73301.81;;;-145.90;27.37
57562;BME280;43397;51.530;5.974;2023-07-20T05:17:54;73307.88;;;-145.90;27.25
57562;BME280;43397;51.530;5.974;2023-07-20T05:20:19;73014.19;;;-145.90;25.47
57562;BME280;43397;51.530;5.974;2023-07-20T05:22:45;73038.50;;;-145.90;25.31
57562;BME280;43397;51.530;5.974;2023-07-20T05:25:11;73336.22;;;-145.90;27.50
57562;BME280;43397;51.530;5.974;2023-07-20T05:27:37;73188.38;;;-145.90;26.37
57562;BME280;43397;51.530;5.974;2023-07-20T05:30:06;73089.13;;;-145.90;25.81
57562;BME280;43397;51.530;5.974;2023-07-20T05:32:32;73111.41;;;-145.90;25.90
57562;BME280;43397;51.530;5.974;2023-07-20T05:34:58;73155.97;;;-145.90;26.07
57562;BME280;43397;51.530;5.974;2023-07-20T05:37:24;73334.22;;;-145.90;26.97
57562;BME280;43397;51.530;5.974;2023-07-20T05:39:50;73034.44;;;-145.90;25.41
57562;BME280;43397;51.530;5.974;2023-07-20T05:42:15;73076.97;;;-145.90;25.46
57562;BME280;43397;51.530;5.974;2023-07-20T05:44:41;72969.63;;;-145.90;25.11
57562;BME280;43397;51.530;5.974;2023-07-20T05:47:08;72979.75;;;-145.90;24.89
57562;BME280;43397;51.530;5.974;2023-07-20T05:49:34;72941.28;;;-145.90;24.72
57562;BME280;43397;51.530;5.974;2023-07-20T05:51:59;73026.34;;;-145.90;24.91
57562;BME280;43397;51.530;5.974;2023-07-20T05:54:25;72929.13;;;-145.90;24.51
57562;BME280;43397;51.530;5.974;2023-07-20T05:56:51;73180.28;;;-145.90;26.01
57562;BME280;43397;51.530;5.974;2023-07-20T05:59:16;73058.75;;;-145.90;25.16
57562;BME280;43397;51.530;5.974;2023-07-20T06:01:43;73111.41;;;-145.90;25.72
57562;BME280;43397;51.530;5.974;2023-07-20T06:04:10;73275.47;;;-145.90;26.49
57562;BME280;43397;51.530;5.974;2023-07-20T06:06:35;73277.50;;;-145.90;26.44
57562;BME280;43397;51.530;5.974;2023-07-20T06:09:01;73234.97;;;-145.90;26.15
57562;BME280;43397;51.530;5.974;2023-07-20T06:11:27;73206.59;;;-145.90;25.91
57562;BME280;43397;51.530;5.974;2023-07-20T06:13:52;73236.97;;;-145.90;26.08
57562;BME280;43397;51.530;5.974;2023-07-20T06:16:18;73032.41;;;-145.90;25.27
57562;BME280;43397;51.530;5.974;2023-07-20T06:18:44;72904.81;;;-145.90;24.39
57562;BME280;43397;51.530;5.974;2023-07-20T06:21:11;73087.09;;;-145.90;24.83
57562;BME280;43397;51.530;5.974;2023-07-20T06:23:36;73085.06;;;-145.90;25.22
57562;BME280;43397;51.530;5.974;2023-07-20T06:26:02;73131.66;;;-145.90;25.15
57562;BME280;43397;51.530;5.974;2023-07-20T06:28:28;73204.56;;;-145.90;25.26
57562;BME280;43397;51.530;5.974;2023-07-20T06:30:59;73380.78;;;-145.90;26.74
57562;BME280;43397;51.530;5.974;2023-07-20T06:33:25;73291.66;;;-145.90;25.80
57562;BME280;43397;51.530;5.974;2023-07-20T06:35:51;73382.81;;;-145.90;26.64
57562;BME280;43397;51.530;5.974;2023-07-20T06:38:18;73340.28;;;-145.90;26.37
57562;BME280;43397;51.530;5.974;2023-07-20T06:40:45;73247.13;;;-145.90;25.72
57562;BME280;43397;51.530;5.974;2023-07-20T06:43:11;73366.63;;;-145.90;25.95
57562;BME280;43397;51.530;5.974;2023-07-20T06:45:36;73234.97;;;-145.90;25.55
57562;BME280;43397;51.530;5.974;2023-07-20T06:48:02;73320.03;;;-145.90;25.66
57562;BME280;43397;51.530;5.974;2023-07-20T06:50:28;73285.59;;;-145.90;25.92
57562;BME280;43397;51.530;5.974;2023-07-20T06:52:54;73151.91;;;-145.90;24.96
57562;BME280;43397;51.530;5.974;2023-07-20T06:55:21;73297.75;;;-145.90;25.43
57562;BME280;43397;51.530;5.974;2023-07-20T06:57:46;73190.41;;;-145.90;25.17
57562;BME280;43397;51.530;5.974;2023-07-20T07:00:13;73135.72;;;-145.90;24.98
57562;BME280;43397;51.530;5.974;2023-07-20T07:02:39;73212.69;;;-145.90;25.02
57562;BME280;43397;51.530;5.974;2023-07-20T07:05:05;73226.84;;;-145.90;25.36
57562;BME280;43397;51.530;5.974;2023-07-20T07:07:31;73230.91;;;-145.90;25.40
57562;BME280;43397;51.530;5.974;2023-07-20T07:09:56;73151.91;;;-145.90;25.06
57562;BME280;43397;51.530;5.974;2023-07-20T07:12:24;73014.19;;;-145.90;24.27
57562;BME280;43397;51.530;5.974;2023-07-20T07:14:49;73301.81;;;-145.90;25.25
57562;BME280;43397;51.530;5.974;2023-07-20T07:17:15;73295.72;;;-145.90;25.28
57562;BME280;43397;51.530;5.974;2023-07-20T07:19:41;73127.63;;;-145.90;24.77
57562;BME280;43397;51.530;5.974;2023-07-20T07:22:06;73026.34;;;-145.90;24.01
57562;BME280;43397;51.530;5.974;2023-07-20T07:24:32;72842.03;;;-145.90;23.40
57562;BME280;43397;51.530;5.974;2023-07-20T07:26:58;72977.72;;;-145.90;23.87
57562;BME280;43397;51.530;5.974;2023-07-20T07:29:24;72884.56;;;-145.90;23.32
57562;BME280;43397;51.530;5.974;2023-07-20T07:31:50;72819.75;;;-145.90;23.08
57562;BME280;43397;51.530;5.974;2023-07-20T07:34:16;72797.47;;;-145.90;23.14
57562;BME280;43397;51.530;5.974;2023-07-20T07:36:43;72874.44;;;-145.90;22.96
57562;BME280;43397;51.530;5.974;2023-07-20T07:39:08;72927.09;;;-145.90;23.40
57562;BME280;43397;51.530;5.974;2023-07-20T07:41:34;73032.41;;;-145.90;23.49
57562;BME280;43397;51.530;5.974;2023-07-20T07:44:00;72989.88;;;-145.90;23.62
57562;BME280;43397;51.530;5.974;2023-07-20T07:46:27;72931.16;;;-145.90;23.13
57562;BME280;43397;51.530;5.974;2023-07-20T07:48:52;72900.78;;;-145.90;22.65
57562;BME280;43397;51.530;5.974;2023-07-20T07:51:18;72896.72;;;-145.90;22.85
57562;BME280;43397;51.530;5.974;2023-07-20T07:53:45;72746.84;;;-145.90;21.97
57562;BME280;43397;51.530;5.974;2023-07-20T07:56:11;72698.25;;;-145.90;22.03
57562;BME280;43397;51.530;5.974;2023-07-20T07:58:37;72629.38;;;-145.90;21.84
57562;BME280;43397;51.530;5.974;2023-07-20T08:01:02;72787.34;;;-145.90;22.47
57562;BME280;43397;51.530;5.974;2023-07-20T08:03:29;73048.63;;;-145.90;23.54
57562;BME280;43397;51.530;5.974;2023-07-20T08:05:55;73097.22;;;-145.90;23.87
57562;BME280;43397;51.530;5.974;2023-07-20T08:08:21;73214.69;;;-145.90;24.59
57562;BME280;43397;51.530;5.974;2023-07-20T08:10:48;72896.72;;;-145.90;23.23
57562;BME280;43397;51.530;5.974;2023-07-20T08:13:14;73079.00;;;-145.90;23.76
57562;BME280;43397;51.530;5.974;2023-07-20T08:15:41;73038.50;;;-145.90;23.64
57562;BME280;43397;51.530;5.974;2023-07-20T08:18:07;73121.53;;;-145.90;23.96
57562;BME280;43397;51.530;5.974;2023-07-20T08:20:34;73226.84;;;-145.90;24.71
57562;BME280;43397;51.530;5.974;2023-07-20T08:23:00;73269.38;;;-145.90;24.27
57562;BME280;43397;51.530;5.974;2023-07-20T08:25:26;73322.06;;;-145.90;24.57
57562;BME280;43397;51.530;5.974;2023-07-20T08:27:52;73149.88;;;-145.90;23.76
57562;BME280;43397;51.530;5.974;2023-07-20T08:30:21;73062.81;;;-145.90;22.90
57562;BME280;43397;51.530;5.974;2023-07-20T08:32:46;72860.25;;;-145.90;21.98
57562;BME280;43397;51.530;5.974;2023-07-20T08:35:12;72686.09;;;-145.90;21.29
57562;BME280;43397;51.530;5.974;2023-07-20T08:37:39;72396.50;;;-145.90;20.72
57562;BME280;43397;51.530;5.974;2023-07-20T08:40:06;72518.00;;;-145.90;20.89
57562;BME280;43397;51.530;5.974;2023-07-20T08:42:31;72635.47;;;-145.90;21.04
57562;BME280;43397;51.530;5.974;2023-07-20T08:44:58;72623.31;;;-145.90;21.62
57562;BME280;43397;51.530;5.974;2023-07-20T08:47:25;72619.25;;;-145.90;21.31
57562;BME280;43397;51.530;5.974;2023-07-20T08:49:51;72443.06;;;-145.90;20.62
57562;BME280;43397;51.530;5.974;2023-07-20T08:52:20;72528.13;;;-145.90;21.01
57562;BME280;43397;51.530;5.974;2023-07-20T08:54:47;72370.19;;;-145.90;20.45
57562;BME280;43397;51.530;5.974;2023-07-20T08:57:14;72513.97;;;-145.90;20.37
57562;BME280;43397;51.530;5.974;2023-07-20T08:59:40;72629.38;;;-145.90;20.70
57562;BME280;43397;51.530;5.974;2023-07-20T09:02:07;72763.06;;;-145.90;21.35
57562;BME280;43397;51.530;5.974;2023-07-20T09:04:34;72856.22;;;-145.90;22.26
57562;BME280;43397;51.530;5.974;2023-07-20T09:07:00;72912.91;;;-145.90;22.30
57562;BME280;43397;51.530;5.974;2023-07-20T09:09:25;72906.84;;;-145.90;22.52
57562;BME280;43397;51.530;5.974;2023-07-20T09:11:52;72771.16;;;-145.90;22.02
57562;BME280;43397;51.530;5.974;2023-07-20T09:14:18;73180.28;;;-145.90;23.62
57562;BME280;43397;51.530;5.974;2023-07-20T09:16:47;73046.59;;;-145.90;23.09
57562;BME280;43397;51.530;5.974;2023-07-20T09:19:14;72858.25;;;-145.90;22.22
57562;BME280;43397;51.530;5.974;2023-07-20T09:21:40;72763.06;;;-145.90;21.48
57562;BME280;43397;51.530;5.974;2023-07-20T09:24:06;72730.66;;;-145.90;21.41
57562;BME280;43397;51.530;5.974;2023-07-20T09:26:43;72852.16;;;-145.90;21.65
57562;BME280;43397;51.530;5.974;2023-07-20T09:29:10;72835.97;;;-145.90;21.20
57562;BME280;43397;51.530;5.974;2023-07-20T09:31:36;72959.50;;;-145.90;22.24
57562;BME280;43397;51.530;5.974;2023-07-20T09:34:02;72447.13;;;-145.90;19.98
57562;BME280;43397;51.530;5.974;2023-07-20T09:36:27;72564.59;;;-145.90;20.39
57562;BME280;43397;51.530;5.974;2023-07-20T09:38:53;72441.06;;;-145.90;19.97
57562;BME280;43397;51.530;5.974;2023-07-20T09:41:21;72386.38;;;-145.90;19.78
57562;BME280;43397;51.530;5.974;2023-07-20T09:43:47;72339.81;;;-145.90;19.47
57562;BME280;43397;51.530;5.974;2023-07-20T09:46:14;72129.22;;;-145.90;18.52
57562;BME280;43397;51.530;5.974;2023-07-20T09:48:40;72040.13;;;-145.90;18.43
57562;BME280;43397;51.530;5.974;2023-07-20T09:51:07;72189.94;;;-145.90;18.80
57562;BME280;43397;51.530;5.974;2023-07-20T09:53:33;72434.97;;;-145.90;20.09
57562;BME280;43397;51.530;5.974;2023-07-20T09:55:59;72840.00;;;-145.90;21.29
57562;BME280;43397;51.530;5.974;2023-07-20T09:58:25;72862.28;;;-145.90;21.37
57562;BME280;43397;51.530;5.974;2023-07-20T10:00:52;72825.84;;;-145.90;21.48
57562;BME280;43397;51.530;5.974;2023-07-20T10:03:21;72692.16;;;-145.90;20.45
57562;BME280;43397;51.530;5.974;2023-07-20T10:05:52;72524.09;;;-145.90;19.88
57562;BME280;43397;51.530;5.974;2023-07-20T10:08:18;72607.13;;;-145.90;20.42
57562;BME280;43397;51.530;5.974;2023-07-20T10:10:47;72513.97;;;-145.90;20.37
57562;BME280;43397;51.530;5.974;2023-07-20T10:13:17;72586.88;;;-145.90;20.48
57562;BME280;43397;51.530;5.974;2023-07-20T10:15:46;72601.03;;;-145.90;20.56
57562;BME280;43397;51.530;5.974;2023-07-20T10:18:14;72684.06;;;-145.90;20.74
57562;BME280;43397;51.530;5.974;2023-07-20T10:20:44;72414.72;;;-145.90;20.00
57562;BME280;43397;51.530;5.974;2023-07-20T10:23:12;72412.69;;;-145.90;19.86
57562;BME280;43397;51.530;5.974;2023-07-20T10:25:39;72398.53;;;-145.90;19.85
57562;BME280;43397;51.530;5.974;2023-07-20T10:28:06;72522.06;;;-145.90;20.49
57562;BME280;43397;51.530;5.974;2023-07-20T10:30:32;72694.19;;;-145.90;20.72
57562;BME280;43397;51.530;5.974;2023-07-20T10:32:58;72609.13;;;-145.90;20.42
57562;BME280;43397;51.530;5.974;2023-07-20T10:35:24;72394.47;;;-145.90;19.70
57562;BME280;43397;51.530;5.974;2023-07-20T10:37:53;72402.56;;;-145.90;20.19
57562;BME280;43397;51.530;5.974;2023-07-20T10:40:31;72404.59;;;-145.90;19.88
57562;BME280;43397;51.530;5.974;2023-07-20T10:43:01;72380.31;;;-145.90;19.89
57562;BME280;43397;51.530;5.974;2023-07-20T10:45:40;72220.31;;;-145.90;19.18
57562;BME280;43397;51.530;5.974;2023-07-20T10:48:12;72240.56;;;-145.90;19.11
57562;BME280;43397;51.530;5.974;2023-07-20T10:50:38;72400.56;;;-145.90;19.63
57562;BME280;43397;51.530;5.974;2023-07-20T10:53:10;72791.41;;;-145.90;21.08
57562;BME280;43397;51.530;5.974;2023-07-20T10:55:36;72465.34;;;-145.90;20.22
57562;BME280;43397;51.530;5.974;2023-07-20T10:58:08;72483.59;;;-145.90;19.99
57562;BME280;43397;51.530;5.974;2023-07-20T11:00:35;72380.31;;;-145.90;19.85
57562;BME280;43397;51.530;5.974;2023-07-20T11:03:01;72181.84;;;-145.90;19.05
57562;BME280;43397;51.530;5.974;2023-07-20T11:05:37;71863.94;;;-145.90;18.56
57562;BME280;43397;51.530;5.974;2023-07-20T11:08:06;72147.44;;;-145.90;18.84
57562;BME280;43397;51.530;5.974;2023-07-20T11:10:34;71983.41;;;-145.90;18.33
57562;BME280;43397;51.530;5.974;2023-07-20T11:13:19;71914.56;;;-145.90;18.10
57562;BME280;43397;51.530;5.974;2023-07-20T11:15:46;71957.09;;;-145.90;18.31
57562;BME280;43397;51.530;5.974;2023-07-20T11:18:12;72187.94;;;-145.90;18.96
57562;BME280;43397;51.530;5.974;2023-07-20T11:20:37;72337.78;;;-145.90;19.62
57562;BME280;43397;51.530;5.974;2023-07-20T11:23:03;72252.72;;;-145.90;19.39
57562;BME280;43397;51.530;5.974;2023-07-20T11:25:38;72534.22;;;-145.90;19.96
57562;BME280;43397;51.530;5.974;2023-07-20T11:28:07;72392.44;;;-145.90;19.89
57562;BME280;43397;51.530;5.974;2023-07-20T11:30:33;72019.88;;;-145.90;18.67
57562;BME280;43397;51.530;5.974;2023-07-20T11:32:58;72390.44;;;-145.90;19.29
57562;BME280;43397;51.530;5.974;2023-07-20T11:35:24;72402.56;;;-145.90;19.89
57562;BME280;43397;51.530;5.974;2023-07-20T11:37:50;72434.97;;;-145.90;19.79
57562;BME280;43397;51.530;5.974;2023-07-20T11:40:15;72447.13;;;-145.90;19.89
57562;BME280;43397;51.530;5.974;2023-07-20T11:42:42;72238.56;;;-145.90;19.15
57562;BME280;43397;51.530;5.974;2023-07-20T11:45:09;72110.97;;;-145.90;18.78
57562;BME280;43397;51.530;5.974;2023-07-20T11:47:39;71872.06;;;-145.90;18.02
57562;BME280;43397;51.530;5.974;2023-07-20T11:50:06;72272.97;;;-145.90;19.40
57562;BME280;43397;51.530;5.974;2023-07-20T11:52:33;72309.44;;;-145.90;19.46
57562;BME280;43397;51.530;5.974;2023-07-20T11:54:59;72378.28;;;-145.90;19.58
57562;BME280;43397;51.530;5.974;2023-07-20T11:57:25;72645.59;;;-145.90;20.67
57562;BME280;43397;51.530;5.974;2023-07-20T11:59:56;72704.31;;;-145.90;20.78
57562;BME280;43397;51.530;5.974;2023-07-20T12:02:22;72544.34;;;-145.90;20.17
57562;BME280;43397;51.530;5.974;2023-07-20T12:04:48;72477.50;;;-145.90;20.24
57562;BME280;43397;51.530;5.974;2023-07-20T12:07:14;72457.25;;;-145.90;19.95
57562;BME280;43397;51.530;5.974;2023-07-20T12:09:40;72599.00;;;-145.90;20.51
57562;BME280;43397;51.530;5.974;2023-07-20T12:12:09;72987.84;;;-145.90;22.04
57562;BME280;43397;51.530;5.974;2023-07-20T12:14:35;72740.78;;;-145.90;21.18
57562;BME280;43397;51.530;5.974;2023-07-20T12:17:02;72629.38;;;-145.90;20.84
57562;BME280;43397;51.530;5.974;2023-07-20T12:19:28;72590.91;;;-145.90;20.34
57562;BME280;43397;51.530;5.974;2023-07-20T12:21:57;72586.88;;;-145.90;20.32
57562;BME280;43397;51.530;5.974;2023-07-20T12:24:23;72647.63;;;-145.90;20.70
57562;BME280;43397;51.530;5.974;2023-07-20T12:26:55;72617.25;;;-145.90;20.35
57562;BME280;43397;51.530;5.974;2023-07-20T12:29:21;72503.84;;;-145.90;20.08
57562;BME280;43397;51.530;5.974;2023-07-20T12:31:47;72485.59;;;-145.90;20.08
57562;BME280;43397;51.530;5.974;2023-07-20T12:34:14;72507.88;;;-145.90;20.19
57562;BME280;43397;51.530;5.974;2023-07-20T12:36:39;72341.81;;;-145.90;19.74
57562;BME280;43397;51.530;5.974;2023-07-20T12:39:05;72376.25;;;-145.90;19.71
57562;BME280;43397;51.530;5.974;2023-07-20T12:41:31;72548.38;;;-145.90;20.17